sensor_id;sensor_type;location;lat;lon;timestamp;P1;durP1;ratioP1;P2;durP2;ratioP2
13580;SDS011;6861;46.170;7.222;2022-10-12T00:00:34;6.85;;;3.60;;
13580;SDS011;6861;46.170;7.222;2022-10-12T00:03:01;6.18;;;3.50;;
13580;SDS011;6861;46.170;7.222;2022-10-12T00:05:28;10.50;;;3.72;;
13580;SDS011;6861;46.170;7.222;2022-10-12T00:07:55;8.25;;;3.97;;
13580;SDS011;6861;46.170;7.222;2022-10-12T00:10:22;6.55;;;3.83;;
13580;SDS011;6861;46.170;7.222;2022-10-12T00:12:49;4.80;;;3.30;;
13580;SDS011;6861;46.170;7.222;2022-10-12T00:15:17;6.22;;;3.70;;
13580;SDS011;6861;46.170;7.222;2022-10-12T00:17:44;4.07;;;2.97;;
13580;SDS011;6861;46.170;7.222;2022-10-12T00:20:11;4.30;;;2.97;;
13580;SDS011;6861;46.170;7.222;2022-10-12T00:22:38;8.73;;;2.72;;
13580;SDS011;6861;46.170;7.222;2022-10-12T00:25:05;5.85;;;2.65;;
13580;SDS011;6861;46.170;7.222;2022-10-12T00:27:33;5.85;;;2.67;;
13580;SDS011;6861;46.170;7.222;2022-10-12T00:30:00;5.15;;;2.42;;
13580;SDS011;6861;46.170;7.222;2022-10-12T00:32:28;5.32;;;2.90;;
13580;SDS011;6861;46.170;7.222;2022-10-12T00:34:55;4.38;;;2.67;;
13580;SDS011;6861;46.170;7.222;2022-10-12T00:37:22;4.60;;;2.90;;
13580;SDS011;6861;46.170;7.222;2022-10-12T00:39:49;5.07;;;3.20;;
13580;SDS011;6861;46.170;7.222;2022-10-12T00:42:17;8.88;;;3.15;;
13580;SDS011;6861;46.170;7.222;2022-10-12T00:44:46;8.30;;;3.28;;
13580;SDS011;6861;46.170;7.222;2022-10-12T00:47:24;6.82;;;3.13;;
13580;SDS011;6861;46.170;7.222;2022-10-12T00:49:58;5.15;;;2.70;;
13580;SDS011;6861;46.170;7.222;2022-10-12T00:52:30;5.50;;;3.00;;
13580;SDS011;6861;46.170;7.222;2022-10-12T00:55:02;4.45;;;3.53;;
13580;SDS011;6861;46.170;7.222;2022-10-12T00:57:30;4.00;;;3.03;;
13580;SDS011;6861;46.170;7.222;2022-10-12T00:59:59;5.32;;;3.17;;
13580;SDS011;6861;46.170;7.222;2022-10-12T01:02:30;7.88;;;3.80;;
13580;SDS011;6861;46.170;7.222;2022-10-12T01:05:00;6.40;;;3.30;;
13580;SDS011;6861;46.170;7.222;2022-10-12T01:07:28;5.10;;;3.53;;
13580;SDS011;6861;46.170;7.222;2022-10-12T01:09:55;4.00;;;3.17;;
13580;SDS011;6861;46.170;7.222;2022-10-12T01:12:22;6.38;;;3.35;;
13580;SDS011;6861;46.170;7.222;2022-10-12T01:14:49;9.48;;;3.85;;
13580;SDS011;6861;46.170;7.222;2022-10-12T01:17:20;7.00;;;3.35;;
13580;SDS011;6861;46.170;7.222;2022-10-12T01:22:59;5.03;;;3.28;;
13580;SDS011;6861;46.170;7.222;2022-10-12T01:25:38;6.15;;;3.10;;
13580;SDS011;6861;46.170;7.222;2022-10-12T01:28:24;5.05;;;3.55;;
13580;SDS011;6861;46.170;7.222;2022-10-12T01:31:03;5.55;;;3.30;;
13580;SDS011;6861;46.170;7.222;2022-10-12T01:33:37;3.97;;;3.22;;
13580;SDS011;6861;46.170;7.222;2022-10-12T01:36:13;5.53;;;3.20;;
13580;SDS011;6861;46.170;7.222;2022-10-12T01:38:45;9.35;;;3.28;;
13580;SDS011;6861;46.170;7.222;2022-10-12T01:41:19;4.45;;;3.00;;
13580;SDS011;6861;46.170;7.222;2022-10-12T01:43:50;6.70;;;3.35;;
13580;SDS011;6861;46.170;7.222;2022-10-12T01:46:41;6.43;;;3.60;;
13580;SDS011;6861;46.170;7.222;2022-10-12T01:49:09;6.10;;;3.15;;
13580;SDS011;6861;46.170;7.222;2022-10-12T01:51:44;5.82;;;3.55;;
13580;SDS011;6861;46.170;7.222;2022-10-12T01:54:53;4.63;;;3.30;;
13580;SDS011;6861;46.170;7.222;2022-10-12T01:57:30;6.78;;;3.40;;
13580;SDS011;6861;46.170;7.222;2022-10-12T02:00:06;4.75;;;3.08;;
13580;SDS011;6861;46.170;7.222;2022-10-12T02:02:38;5.85;;;3.90;;
13580;SDS011;6861;46.170;7.222;2022-10-12T02:05:13;5.70;;;3.60;;
13580;SDS011;6861;46.170;7.222;2022-10-12T02:07:48;5.93;;;3.17;;
13580;SDS011;6861;46.170;7.222;2022-10-12T02:10:20;7.63;;;3.42;;
13580;SDS011;6861;46.170;7.222;2022-10-12T02:12:52;9.00;;;3.50;;
13580;SDS011;6861;46.170;7.222;2022-10-12T02:15:21;7.43;;;3.88;;
13580;SDS011;6861;46.170;7.222;2022-10-12T02:17:52;5.82;;;3.70;;
13580;SDS011;6861;46.170;7.222;2022-10-12T02:20:20;6.20;;;3.22;;
13580;SDS011;6861;46.170;7.222;2022-10-12T02:22:50;8.75;;;3.65;;
13580;SDS011;6861;46.170;7.222;2022-10-12T02:25:19;4.75;;;3.40;;
13580;SDS011;6861;46.170;7.222;2022-10-12T02:27:48;5.90;;;3.65;;
13580;SDS011;6861;46.170;7.222;2022-10-12T02:30:20;6.22;;;3.15;;
13580;SDS011;6861;46.170;7.222;2022-10-12T02:32:49;5.20;;;3.50;;
13580;SDS011;6861;46.170;7.222;2022-10-12T02:35:23;5.82;;;3.63;;
13580;SDS011;6861;46.170;7.222;2022-10-12T02:37:54;7.22;;;3.20;;
13580;SDS011;6861;46.170;7.222;2022-10-12T02:40:29;4.50;;;3.15;;
13580;SDS011;6861;46.170;7.222;2022-10-12T02:43:02;5.32;;;3.25;;
13580;SDS011;6861;46.170;7.222;2022-10-12T02:45:33;9.07;;;3.67;;
13580;SDS011;6861;46.170;7.222;2022-10-12T02:48:01;4.95;;;3.60;;
13580;SDS011;6861;46.170;7.222;2022-10-12T02:50:32;4.75;;;3.55;;
13580;SDS011;6861;46.170;7.222;2022-10-12T02:52:59;5.15;;;3.47;;
13580;SDS011;6861;46.170;7.222;2022-10-12T02:55:28;4.13;;;3.47;;
13580;SDS011;6861;46.170;7.222;2022-10-12T02:57:55;6.35;;;3.80;;
13580;SDS011;6861;46.170;7.222;2022-10-12T03:00:22;6.65;;;3.45;;
13580;SDS011;6861;46.170;7.222;2022-10-12T03:02:49;5.20;;;3.47;;
13580;SDS011;6861;46.170;7.222;2022-10-12T03:05:16;4.75;;;3.70;;
13580;SDS011;6861;46.170;7.222;2022-10-12T03:07:44;5.22;;;3.30;;
13580;SDS011;6861;46.170;7.222;2022-10-12T03:10:11;7.43;;;3.65;;
13580;SDS011;6861;46.170;7.222;2022-10-12T03:12:38;4.80;;;3.25;;
13580;SDS011;6861;46.170;7.222;2022-10-12T03:15:05;5.63;;;3.63;;
13580;SDS011;6861;46.170;7.222;2022-10-12T03:17:32;5.43;;;3.63;;
13580;SDS011;6861;46.170;7.222;2022-10-12T03:19:59;8.02;;;3.72;;
13580;SDS011;6861;46.170;7.222;2022-10-12T03:22:26;5.63;;;3.35;;
13580;SDS011;6861;46.170;7.222;2022-10-12T03:24:54;5.75;;;3.20;;
13580;SDS011;6861;46.170;7.222;2022-10-12T03:27:24;4.20;;;3.35;;
13580;SDS011;6861;46.170;7.222;2022-10-12T03:29:51;6.18;;;3.80;;
13580;SDS011;6861;46.170;7.222;2022-10-12T03:32:18;6.90;;;4.13;;
13580;SDS011;6861;46.170;7.222;2022-10-12T03:34:45;7.50;;;3.95;;
13580;SDS011;6861;46.170;7.222;2022-10-12T03:37:12;5.22;;;3.58;;
13580;SDS011;6861;46.170;7.222;2022-10-12T03:39:39;5.07;;;3.60;;
13580;SDS011;6861;46.170;7.222;2022-10-12T03:42:07;8.05;;;4.10;;
13580;SDS011;6861;46.170;7.222;2022-10-12T03:44:34;7.60;;;3.58;;
13580;SDS011;6861;46.170;7.222;2022-10-12T03:47:01;8.20;;;3.38;;
13580;SDS011;6861;46.170;7.222;2022-10-12T03:49:28;7.03;;;3.85;;
13580;SDS011;6861;46.170;7.222;2022-10-12T03:51:55;7.55;;;3.78;;
13580;SDS011;6861;46.170;7.222;2022-10-12T03:54:22;5.45;;;4.03;;
13580;SDS011;6861;46.170;7.222;2022-10-12T03:56:49;4.97;;;3.60;;
13580;SDS011;6861;46.170;7.222;2022-10-12T03:59:17;7.45;;;3.78;;
13580;SDS011;6861;46.170;7.222;2022-10-12T04:01:44;8.55;;;3.97;;
13580;SDS011;6861;46.170;7.222;2022-10-12T04:04:11;5.38;;;3.83;;
13580;SDS011;6861;46.170;7.222;2022-10-12T04:06:38;4.28;;;3.65;;
13580;SDS011;6861;46.170;7.222;2022-10-12T04:09:05;5.32;;;3.55;;
13580;SDS011;6861;46.170;7.222;2022-10-12T04:11:32;8.50;;;3.40;;
13580;SDS011;6861;46.170;7.222;2022-10-12T04:13:59;8.05;;;3.85;;
13580;SDS011;6861;46.170;7.222;2022-10-12T04:16:27;6.60;;;3.60;;
13580;SDS011;6861;46.170;7.222;2022-10-12T04:18:54;6.20;;;3.72;;
13580;SDS011;6861;46.170;7.222;2022-10-12T04:21:21;5.63;;;3.83;;
13580;SDS011;6861;46.170;7.222;2022-10-12T04:23:49;4.53;;;3.47;;
13580;SDS011;6861;46.170;7.222;2022-10-12T04:26:16;7.40;;;3.92;;
13580;SDS011;6861;46.170;7.222;2022-10-12T04:28:43;7.40;;;3.72;;
13580;SDS011;6861;46.170;7.222;2022-10-12T04:31:10;5.15;;;3.42;;
13580;SDS011;6861;46.170;7.222;2022-10-12T04:33:38;5.38;;;3.72;;
13580;SDS011;6861;46.170;7.222;2022-10-12T04:36:05;9.52;;;3.60;;
13580;SDS011;6861;46.170;7.222;2022-10-12T04:38:32;8.50;;;4.00;;
13580;SDS011;6861;46.170;7.222;2022-10-12T04:41:00;6.45;;;3.63;;
13580;SDS011;6861;46.170;7.222;2022-10-12T04:43:26;7.00;;;3.80;;
13580;SDS011;6861;46.170;7.222;2022-10-12T04:45:54;4.55;;;3.78;;
13580;SDS011;6861;46.170;7.222;2022-10-12T04:48:21;6.55;;;3.53;;
13580;SDS011;6861;46.170;7.222;2022-10-12T04:50:49;5.82;;;3.50;;
13580;SDS011;6861;46.170;7.222;2022-10-12T04:53:17;5.55;;;3.63;;
13580;SDS011;6861;46.170;7.222;2022-10-12T04:55:43;7.68;;;3.95;;
13580;SDS011;6861;46.170;7.222;2022-10-12T04:58:10;6.65;;;4.07;;
13580;SDS011;6861;46.170;7.222;2022-10-12T05:00:37;5.53;;;3.55;;
13580;SDS011;6861;46.170;7.222;2022-10-12T05:03:04;6.03;;;3.53;;
13580;SDS011;6861;46.170;7.222;2022-10-12T05:05:31;8.27;;;4.18;;
13580;SDS011;6861;46.170;7.222;2022-10-12T05:08:01;6.72;;;3.80;;
13580;SDS011;6861;46.170;7.222;2022-10-12T05:10:28;5.07;;;3.75;;
13580;SDS011;6861;46.170;7.222;2022-10-12T05:12:55;8.65;;;3.50;;
13580;SDS011;6861;46.170;7.222;2022-10-12T05:15:22;7.85;;;3.85;;
13580;SDS011;6861;46.170;7.222;2022-10-12T05:17:49;7.50;;;3.80;;
13580;SDS011;6861;46.170;7.222;2022-10-12T05:20:16;11.70;;;7.13;;
13580;SDS011;6861;46.170;7.222;2022-10-12T05:22:43;4.43;;;3.50;;
13580;SDS011;6861;46.170;7.222;2022-10-12T05:25:12;5.47;;;4.22;;
13580;SDS011;6861;46.170;7.222;2022-10-12T05:27:39;5.63;;;3.90;;
13580;SDS011;6861;46.170;7.222;2022-10-12T05:30:06;6.90;;;4.25;;
13580;SDS011;6861;46.170;7.222;2022-10-12T05:32:34;5.75;;;3.97;;
13580;SDS011;6861;46.170;7.222;2022-10-12T05:35:00;11.60;;;4.57;;
13580;SDS011;6861;46.170;7.222;2022-10-12T05:37:27;8.63;;;4.15;;
13580;SDS011;6861;46.170;7.222;2022-10-12T05:39:54;7.40;;;3.63;;
13580;SDS011;6861;46.170;7.222;2022-10-12T05:42:23;5.15;;;4.07;;
13580;SDS011;6861;46.170;7.222;2022-10-12T05:44:50;7.78;;;3.78;;
13580;SDS011;6861;46.170;7.222;2022-10-12T05:47:17;5.75;;;3.53;;
13580;SDS011;6861;46.170;7.222;2022-10-12T05:49:43;5.50;;;4.30;;
13580;SDS011;6861;46.170;7.222;2022-10-12T05:52:10;4.57;;;3.90;;
13580;SDS011;6861;46.170;7.222;2022-10-12T05:54:37;8.63;;;4.25;;
13580;SDS011;6861;46.170;7.222;2022-10-12T05:57:04;4.63;;;3.70;;
13580;SDS011;6861;46.170;7.222;2022-10-12T05:59:32;6.50;;;4.10;;
13580;SDS011;6861;46.170;7.222;2022-10-12T06:01:59;4.32;;;3.38;;
13580;SDS011;6861;46.170;7.222;2022-10-12T06:04:26;5.85;;;3.80;;
13580;SDS011;6861;46.170;7.222;2022-10-12T06:06:53;4.38;;;3.70;;
13580;SDS011;6861;46.170;7.222;2022-10-12T06:09:20;6.70;;;4.38;;
13580;SDS011;6861;46.170;7.222;2022-10-12T06:11:47;9.30;;;4.25;;
13580;SDS011;6861;46.170;7.222;2022-10-12T06:14:14;8.05;;;4.07;;
13580;SDS011;6861;46.170;7.222;2022-10-12T06:16:43;5.63;;;4.03;;
13580;SDS011;6861;46.170;7.222;2022-10-12T06:19:09;4.65;;;4.05;;
13580;SDS011;6861;46.170;7.222;2022-10-12T06:21:37;7.32;;;3.63;;
13580;SDS011;6861;46.170;7.222;2022-10-12T06:24:04;6.95;;;4.03;;
13580;SDS011;6861;46.170;7.222;2022-10-12T06:26:31;6.22;;;3.38;;
13580;SDS011;6861;46.170;7.222;2022-10-12T06:28:58;8.13;;;4.10;;
13580;SDS011;6861;46.170;7.222;2022-10-12T06:31:25;5.15;;;3.45;;
13580;SDS011;6861;46.170;7.222;2022-10-12T06:33:54;8.20;;;3.60;;
13580;SDS011;6861;46.170;7.222;2022-10-12T06:36:21;4.88;;;3.60;;
13580;SDS011;6861;46.170;7.222;2022-10-12T06:38:48;5.82;;;4.38;;
13580;SDS011;6861;46.170;7.222;2022-10-12T06:41:15;12.32;;;5.78;;
13580;SDS011;6861;46.170;7.222;2022-10-12T06:43:42;6.13;;;4.18;;
13580;SDS011;6861;46.170;7.222;2022-10-12T06:46:09;6.78;;;3.85;;
13580;SDS011;6861;46.170;7.222;2022-10-12T06:48:36;5.95;;;3.80;;
13580;SDS011;6861;46.170;7.222;2022-10-12T06:51:04;7.00;;;3.65;;
13580;SDS011;6861;46.170;7.222;2022-10-12T06:53:31;4.60;;;3.33;;
13580;SDS011;6861;46.170;7.222;2022-10-12T06:55:59;4.45;;;3.28;;
13580;SDS011;6861;46.170;7.222;2022-10-12T06:58:30;5.53;;;3.30;;
13580;SDS011;6861;46.170;7.222;2022-10-12T07:00:57;5.72;;;3.60;;
13580;SDS011;6861;46.170;7.222;2022-10-12T07:03:27;6.28;;;4.00;;
13580;SDS011;6861;46.170;7.222;2022-10-12T07:05:54;5.30;;;3.60;;
13580;SDS011;6861;46.170;7.222;2022-10-12T07:08:22;6.43;;;4.40;;
13580;SDS011;6861;46.170;7.222;2022-10-12T07:10:49;6.55;;;4.25;;
13580;SDS011;6861;46.170;7.222;2022-10-12T07:13:25;6.43;;;4.50;;
13580;SDS011;6861;46.170;7.222;2022-10-12T07:15:52;5.60;;;4.45;;
13580;SDS011;6861;46.170;7.222;2022-10-12T07:18:19;8.27;;;4.32;;
13580;SDS011;6861;46.170;7.222;2022-10-12T07:20:46;6.63;;;4.32;;
13580;SDS011;6861;46.170;7.222;2022-10-12T07:23:13;8.02;;;4.10;;
13580;SDS011;6861;46.170;7.222;2022-10-12T07:25:45;4.63;;;3.63;;
13580;SDS011;6861;46.170;7.222;2022-10-12T07:28:13;6.38;;;3.75;;
13580;SDS011;6861;46.170;7.222;2022-10-12T07:30:40;10.07;;;4.10;;
13580;SDS011;6861;46.170;7.222;2022-10-12T07:33:07;7.05;;;4.40;;
13580;SDS011;6861;46.170;7.222;2022-10-12T07:35:34;6.72;;;3.88;;
13580;SDS011;6861;46.170;7.222;2022-10-12T07:38:01;8.38;;;4.30;;
13580;SDS011;6861;46.170;7.222;2022-10-12T07:40:28;8.52;;;4.13;;
13580;SDS011;6861;46.170;7.222;2022-10-12T07:42:57;7.55;;;4.13;;
13580;SDS011;6861;46.170;7.222;2022-10-12T07:45:25;6.30;;;4.55;;
13580;SDS011;6861;46.170;7.222;2022-10-12T07:47:53;6.38;;;4.25;;
13580;SDS011;6861;46.170;7.222;2022-10-12T07:50:20;6.32;;;4.13;;
13580;SDS011;6861;46.170;7.222;2022-10-12T07:52:49;5.97;;;4.00;;
13580;SDS011;6861;46.170;7.222;2022-10-12T07:55:16;5.68;;;4.28;;
13580;SDS011;6861;46.170;7.222;2022-10-12T07:57:43;5.32;;;3.90;;
13580;SDS011;6861;46.170;7.222;2022-10-12T08:00:11;5.55;;;3.63;;
13580;SDS011;6861;46.170;7.222;2022-10-12T08:02:39;7.68;;;4.05;;
13580;SDS011;6861;46.170;7.222;2022-10-12T08:05:06;7.55;;;4.10;;
13580;SDS011;6861;46.170;7.222;2022-10-12T08:07:33;5.82;;;3.50;;
13580;SDS011;6861;46.170;7.222;2022-10-12T08:10:00;5.57;;;3.42;;
13580;SDS011;6861;46.170;7.222;2022-10-12T08:12:27;4.78;;;3.50;;
13580;SDS011;6861;46.170;7.222;2022-10-12T08:14:54;3.97;;;3.17;;
13580;SDS011;6861;46.170;7.222;2022-10-12T08:17:22;3.25;;;2.90;;
13580;SDS011;6861;46.170;7.222;2022-10-12T08:19:49;3.05;;;2.72;;
13580;SDS011;6861;46.170;7.222;2022-10-12T08:22:16;6.20;;;3.17;;
13580;SDS011;6861;46.170;7.222;2022-10-12T08:24:43;4.15;;;3.05;;
13580;SDS011;6861;46.170;7.222;2022-10-12T08:27:10;4.93;;;3.10;;
13580;SDS011;6861;46.170;7.222;2022-10-12T08:29:37;6.88;;;3.33;;
13580;SDS011;6861;46.170;7.222;2022-10-12T08:32:04;3.97;;;3.40;;
13580;SDS011;6861;46.170;7.222;2022-10-12T08:34:32;4.93;;;3.15;;
13580;SDS011;6861;46.170;7.222;2022-10-12T08:36:59;5.32;;;3.30;;
13580;SDS011;6861;46.170;7.222;2022-10-12T08:39:26;5.20;;;3.30;;
13580;SDS011;6861;46.170;7.222;2022-10-12T08:41:55;5.13;;;3.38;;
13580;SDS011;6861;46.170;7.222;2022-10-12T08:44:37;4.43;;;3.45;;
13580;SDS011;6861;46.170;7.222;2022-10-12T08:47:14;5.40;;;3.05;;
13580;SDS011;6861;46.170;7.222;2022-10-12T08:49:44;5.72;;;3.63;;
13580;SDS011;6861;46.170;7.222;2022-10-12T08:52:17;4.65;;;3.10;;
13580;SDS011;6861;46.170;7.222;2022-10-12T08:54:50;4.97;;;2.75;;
13580;SDS011;6861;46.170;7.222;2022-10-12T08:57:18;5.90;;;3.20;;
13580;SDS011;6861;46.170;7.222;2022-10-12T08:59:45;4.22;;;3.22;;
13580;SDS011;6861;46.170;7.222;2022-10-12T09:05:08;5.78;;;2.90;;
13580;SDS011;6861;46.170;7.222;2022-10-12T09:07:41;5.03;;;3.13;;
13580;SDS011;6861;46.170;7.222;2022-10-12T09:10:16;3.47;;;2.55;;
13580;SDS011;6861;46.170;7.222;2022-10-12T09:12:53;4.75;;;2.35;;
13580;SDS011;6861;46.170;7.222;2022-10-12T09:15:30;3.28;;;2.63;;
13580;SDS011;6861;46.170;7.222;2022-10-12T09:17:59;5.35;;;2.47;;
13580;SDS011;6861;46.170;7.222;2022-10-12T09:20:30;3.33;;;2.47;;
13580;SDS011;6861;46.170;7.222;2022-10-12T09:23:00;4.07;;;2.45;;
13580;SDS011;6861;46.170;7.222;2022-10-12T09:25:43;3.30;;;2.20;;
13580;SDS011;6861;46.170;7.222;2022-10-12T09:28:12;3.88;;;2.15;;
13580;SDS011;6861;46.170;7.222;2022-10-12T09:30:44;4.38;;;2.08;;
13580;SDS011;6861;46.170;7.222;2022-10-12T09:33:22;2.42;;;1.83;;
13580;SDS011;6861;46.170;7.222;2022-10-12T09:35:58;2.22;;;1.70;;
13580;SDS011;6861;46.170;7.222;2022-10-12T09:38:25;3.00;;;1.52;;
13580;SDS011;6861;46.170;7.222;2022-10-12T09:40:52;2.58;;;1.67;;
13580;SDS011;6861;46.170;7.222;2022-10-12T09:43:19;3.20;;;1.77;;
13580;SDS011;6861;46.170;7.222;2022-10-12T09:45:46;2.70;;;1.70;;
13580;SDS011;6861;46.170;7.222;2022-10-12T09:48:15;2.25;;;1.70;;
13580;SDS011;6861;46.170;7.222;2022-10-12T09:50:47;2.22;;;1.52;;
13580;SDS011;6861;46.170;7.222;2022-10-12T09:53:21;2.78;;;1.65;;
13580;SDS011;6861;46.170;7.222;2022-10-12T09:55:52;2.25;;;1.70;;
13580;SDS011;6861;46.170;7.222;2022-10-12T09:58:22;2.92;;;1.60;;
13580;SDS011;6861;46.170;7.222;2022-10-12T10:01:14;3.38;;;1.42;;
13580;SDS011;6861;46.170;7.222;2022-10-12T10:03:46;2.90;;;1.52;;
13580;SDS011;6861;46.170;7.222;2022-10-12T10:06:21;3.53;;;1.33;;
13580;SDS011;6861;46.170;7.222;2022-10-12T10:08:50;2.30;;;1.50;;
13580;SDS011;6861;46.170;7.222;2022-10-12T10:11:19;2.58;;;1.40;;
13580;SDS011;6861;46.170;7.222;2022-10-12T10:13:49;4.07;;;1.60;;
13580;SDS011;6861;46.170;7.222;2022-10-12T10:16:19;2.03;;;1.40;;
13580;SDS011;6861;46.170;7.222;2022-10-12T10:18:49;3.70;;;1.40;;
13580;SDS011;6861;46.170;7.222;2022-10-12T10:21:25;2.55;;;1.30;;
13580;SDS011;6861;46.170;7.222;2022-10-12T10:23:56;1.48;;;1.20;;
13580;SDS011;6861;46.170;7.222;2022-10-12T10:26:25;1.85;;;1.30;;
13580;SDS011;6861;46.170;7.222;2022-10-12T10:28:55;2.60;;;1.30;;
13580;SDS011;6861;46.170;7.222;2022-10-12T10:31:24;1.42;;;1.23;;
13580;SDS011;6861;46.170;7.222;2022-10-12T10:34:10;2.00;;;1.38;;
13580;SDS011;6861;46.170;7.222;2022-10-12T10:36:45;2.45;;;1.17;;
13580;SDS011;6861;46.170;7.222;2022-10-12T10:39:19;3.95;;;1.50;;
13580;SDS011;6861;46.170;7.222;2022-10-12T10:41:50;2.50;;;1.42;;
13580;SDS011;6861;46.170;7.222;2022-10-12T10:44:23;2.20;;;1.70;;
13580;SDS011;6861;46.170;7.222;2022-10-12T10:46:52;4.60;;;1.42;;
13580;SDS011;6861;46.170;7.222;2022-10-12T10:49:22;1.83;;;1.30;;
13580;SDS011;6861;46.170;7.222;2022-10-12T10:51:58;2.53;;;1.30;;
13580;SDS011;6861;46.170;7.222;2022-10-12T10:54:29;2.75;;;1.23;;
13580;SDS011;6861;46.170;7.222;2022-10-12T10:57:01;2.80;;;1.27;;
13580;SDS011;6861;46.170;7.222;2022-10-12T10:59:44;2.13;;;1.23;;
13580;SDS011;6861;46.170;7.222;2022-10-12T11:02:19;2.53;;;1.10;;
13580;SDS011;6861;46.170;7.222;2022-10-12T11:04:52;1.20;;;1.10;;
13580;SDS011;6861;46.170;7.222;2022-10-12T11:07:26;1.98;;;1.13;;
13580;SDS011;6861;46.170;7.222;2022-10-12T11:10:00;2.22;;;1.30;;
13580;SDS011;6861;46.170;7.222;2022-10-12T11:12:30;1.92;;;1.30;;
13580;SDS011;6861;46.170;7.222;2022-10-12T11:15:03;1.33;;;1.23;;
13580;SDS011;6861;46.170;7.222;2022-10-12T11:17:37;1.40;;;1.25;;
13580;SDS011;6861;46.170;7.222;2022-10-12T11:20:17;2.05;;;1.10;;
13580;SDS011;6861;46.170;7.222;2022-10-12T11:22:56;1.40;;;1.30;;
13580;SDS011;6861;46.170;7.222;2022-10-12T11:25:29;2.08;;;1.20;;
13580;SDS011;6861;46.170;7.222;2022-10-12T11:28:03;1.20;;;1.10;;
13580;SDS011;6861;46.170;7.222;2022-10-12T11:30:35;2.50;;;1.10;;
13580;SDS011;6861;46.170;7.222;2022-10-12T11:33:06;1.70;;;1.10;;
13580;SDS011;6861;46.170;7.222;2022-10-12T11:35:39;2.20;;;1.20;;
13580;SDS011;6861;46.170;7.222;2022-10-12T11:38:08;1.83;;;1.05;;
13580;SDS011;6861;46.170;7.222;2022-10-12T11:40:43;2.92;;;1.10;;
13580;SDS011;6861;46.170;7.222;2022-10-12T11:43:14;1.40;;;1.10;;
13580;SDS011;6861;46.170;7.222;2022-10-12T11:45:47;2.17;;;1.17;;
13580;SDS011;6861;46.170;7.222;2022-10-12T11:48:19;1.42;;;0.98;;
13580;SDS011;6861;46.170;7.222;2022-10-12T11:50:50;1.55;;;0.95;;
13580;SDS011;6861;46.170;7.222;2022-10-12T11:53:18;1.02;;;0.93;;
13580;SDS011;6861;46.170;7.222;2022-10-12T11:55:58;1.42;;;1.00;;
13580;SDS011;6861;46.170;7.222;2022-10-12T11:58:34;1.42;;;1.10;;
13580;SDS011;6861;46.170;7.222;2022-10-12T12:01:07;1.33;;;0.80;;
13580;SDS011;6861;46.170;7.222;2022-10-12T12:03:59;1.92;;;0.80;;
13580;SDS011;6861;46.170;7.222;2022-10-12T12:06:47;1.05;;;0.95;;
13580;SDS011;6861;46.170;7.222;2022-10-12T12:09:18;1.60;;;1.00;;
13580;SDS011;6861;46.170;7.222;2022-10-12T12:12:07;1.85;;;1.00;;
13580;SDS011;6861;46.170;7.222;2022-10-12T12:14:46;1.60;;;1.10;;
13580;SDS011;6861;46.170;7.222;2022-10-12T12:17:29;1.58;;;0.90;;
13580;SDS011;6861;46.170;7.222;2022-10-12T12:19:58;1.88;;;0.80;;
13580;SDS011;6861;46.170;7.222;2022-10-12T12:22:32;1.15;;;0.95;;
13580;SDS011;6861;46.170;7.222;2022-10-12T12:25:16;1.27;;;1.10;;
13580;SDS011;6861;46.170;7.222;2022-10-12T12:27:50;1.90;;;1.13;;
13580;SDS011;6861;46.170;7.222;2022-10-12T12:30:25;1.10;;;0.90;;
13580;SDS011;6861;46.170;7.222;2022-10-12T12:32:56;2.40;;;1.02;;
13580;SDS011;6861;46.170;7.222;2022-10-12T12:35:26;4.13;;;1.00;;
13580;SDS011;6861;46.170;7.222;2022-10-12T12:41:02;2.65;;;1.30;;
13580;SDS011;6861;46.170;7.222;2022-10-12T12:49:39;1.92;;;1.17;;
13580;SDS011;6861;46.170;7.222;2022-10-12T12:52:12;3.55;;;1.50;;
13580;SDS011;6861;46.170;7.222;2022-10-12T12:54:46;3.38;;;1.80;;
13580;SDS011;6861;46.170;7.222;2022-10-12T12:57:38;3.22;;;2.03;;
13580;SDS011;6861;46.170;7.222;2022-10-12T13:00:17;4.13;;;1.60;;
13580;SDS011;6861;46.170;7.222;2022-10-12T13:03:01;2.50;;;1.40;;
13580;SDS011;6861;46.170;7.222;2022-10-12T13:08:53;3.67;;;1.80;;
13580;SDS011;6861;46.170;7.222;2022-10-12T13:11:37;5.03;;;1.98;;
13580;SDS011;6861;46.170;7.222;2022-10-12T13:14:21;4.97;;;1.95;;
13580;SDS011;6861;46.170;7.222;2022-10-12T13:17:05;2.45;;;1.50;;
13580;SDS011;6861;46.170;7.222;2022-10-12T13:19:45;3.45;;;1.90;;
13580;SDS011;6861;46.170;7.222;2022-10-12T13:22:13;4.50;;;2.08;;
13580;SDS011;6861;46.170;7.222;2022-10-12T13:24:46;4.55;;;2.33;;
13580;SDS011;6861;46.170;7.222;2022-10-12T13:27:17;6.40;;;1.90;;
13580;SDS011;6861;46.170;7.222;2022-10-12T13:29:48;2.78;;;2.22;;
13580;SDS011;6861;46.170;7.222;2022-10-12T13:32:26;3.40;;;2.40;;
13580;SDS011;6861;46.170;7.222;2022-10-12T13:35:01;3.70;;;2.08;;
13580;SDS011;6861;46.170;7.222;2022-10-12T13:37:32;7.40;;;2.22;;
13580;SDS011;6861;46.170;7.222;2022-10-12T13:40:01;6.32;;;2.45;;
13580;SDS011;6861;46.170;7.222;2022-10-12T13:42:29;5.07;;;2.45;;
13580;SDS011;6861;46.170;7.222;2022-10-12T13:45:00;4.80;;;2.47;;
13580;SDS011;6861;46.170;7.222;2022-10-12T13:47:32;4.07;;;2.85;;
13580;SDS011;6861;46.170;7.222;2022-10-12T13:49:59;5.18;;;2.55;;
13580;SDS011;6861;46.170;7.222;2022-10-12T13:52:26;4.18;;;2.78;;
13580;SDS011;6861;46.170;7.222;2022-10-12T13:54:55;4.65;;;2.97;;
13580;SDS011;6861;46.170;7.222;2022-10-12T13:57:26;8.50;;;3.03;;
13580;SDS011;6861;46.170;7.222;2022-10-12T13:59:59;9.55;;;3.60;;
13580;SDS011;6861;46.170;7.222;2022-10-12T14:02:28;5.60;;;3.28;;
13580;SDS011;6861;46.170;7.222;2022-10-12T14:04:59;6.38;;;3.63;;
13580;SDS011;6861;46.170;7.222;2022-10-12T14:07:30;4.78;;;3.55;;
13580;SDS011;6861;46.170;7.222;2022-10-12T14:10:00;5.00;;;3.20;;
13580;SDS011;6861;46.170;7.222;2022-10-12T14:12:32;8.20;;;3.78;;
13580;SDS011;6861;46.170;7.222;2022-10-12T14:15:01;6.70;;;3.75;;
13580;SDS011;6861;46.170;7.222;2022-10-12T14:17:30;9.07;;;4.25;;
13580;SDS011;6861;46.170;7.222;2022-10-12T14:20:12;8.23;;;4.63;;
13580;SDS011;6861;46.170;7.222;2022-10-12T14:22:44;11.50;;;5.30;;
13580;SDS011;6861;46.170;7.222;2022-10-12T14:25:14;6.25;;;4.47;;
13580;SDS011;6861;46.170;7.222;2022-10-12T14:27:44;9.65;;;4.55;;
13580;SDS011;6861;46.170;7.222;2022-10-12T14:30:16;6.97;;;4.10;;
13580;SDS011;6861;46.170;7.222;2022-10-12T14:32:44;5.95;;;4.05;;
13580;SDS011;6861;46.170;7.222;2022-10-12T14:35:21;7.07;;;3.85;;
13580;SDS011;6861;46.170;7.222;2022-10-12T14:37:50;10.32;;;4.10;;
13580;SDS011;6861;46.170;7.222;2022-10-12T14:40:23;6.82;;;3.78;;
13580;SDS011;6861;46.170;7.222;2022-10-12T14:43:01;5.90;;;3.88;;
13580;SDS011;6861;46.170;7.222;2022-10-12T14:45:32;8.48;;;4.18;;
13580;SDS011;6861;46.170;7.222;2022-10-12T14:48:00;9.73;;;4.47;;
13580;SDS011;6861;46.170;7.222;2022-10-12T14:50:29;6.32;;;4.18;;
13580;SDS011;6861;46.170;7.222;2022-10-12T14:52:57;8.55;;;4.30;;
13580;SDS011;6861;46.170;7.222;2022-10-12T14:55:28;8.50;;;4.68;;
13580;SDS011;6861;46.170;7.222;2022-10-12T14:57:56;6.60;;;4.80;;
13580;SDS011;6861;46.170;7.222;2022-10-12T15:00:26;6.75;;;4.25;;
13580;SDS011;6861;46.170;7.222;2022-10-12T15:02:55;7.35;;;4.20;;
13580;SDS011;6861;46.170;7.222;2022-10-12T15:05:22;7.65;;;4.55;;
13580;SDS011;6861;46.170;7.222;2022-10-12T15:07:53;10.07;;;4.90;;
13580;SDS011;6861;46.170;7.222;2022-10-12T15:10:21;8.27;;;4.20;;
13580;SDS011;6861;46.170;7.222;2022-10-12T15:12:48;5.63;;;3.65;;
13580;SDS011;6861;46.170;7.222;2022-10-12T15:15:28;5.35;;;3.83;;
13580;SDS011;6861;46.170;7.222;2022-10-12T15:17:59;6.07;;;4.07;;
13580;SDS011;6861;46.170;7.222;2022-10-12T15:20:26;10.32;;;4.22;;
13580;SDS011;6861;46.170;7.222;2022-10-12T15:22:54;5.93;;;3.88;;
13580;SDS011;6861;46.170;7.222;2022-10-12T15:25:22;7.97;;;4.38;;
13580;SDS011;6861;46.170;7.222;2022-10-12T15:28:04;6.30;;;3.92;;
13580;SDS011;6861;46.170;7.222;2022-10-12T15:30:33;5.57;;;3.45;;
13580;SDS011;6861;46.170;7.222;2022-10-12T15:33:00;6.13;;;3.70;;
13580;SDS011;6861;46.170;7.222;2022-10-12T15:35:28;5.88;;;3.60;;
13580;SDS011;6861;46.170;7.222;2022-10-12T15:37:57;8.93;;;3.80;;